This is the latest recevied weather packets stored in our database for station/object WX1NWA. If no packets are shown the sender has not sent any weather packets the latest 10 day(s).
| Time | Temp. | Humidity | Pressure | Rain* | Wind** | Luminosity | Snow |
|---|---|---|---|---|---|---|---|
| 1777150905 | 19.44° C | 82% | 1013.1 hPa | 0 mm | - | 530 W/m² | - |
| 1777150600 | 19.44° C | 80% | 1013.1 hPa | 0 mm | - | 576 W/m² | - |
| 1777150296 | 19.44° C | 82% | 1013.2 hPa | 0 mm | - | 291 W/m² | - |
| 1777149995 | 20° C | 81% | 1013.1 hPa | 0 mm | - | 603 W/m² | - |
| 1777149690 | 20° C | 79% | 1013 hPa | 0 mm | - | 613 W/m² | - |
| 1777149387 | 20.56° C | 78% | 1013.2 hPa | 0 mm | - | 615 W/m² | - |
| 1777149083 | 20.56° C | 79% | 1013.1 hPa | 0 mm | - | 540 W/m² | - |
| 1777148777 | 20° C | 79% | 1013.1 hPa | 0 mm | - | 660 W/m² | - |
| 1777148475 | 20° C | 80% | 1013.2 hPa | 0 mm | - | 316 W/m² | - |
| 1777148170 | 20° C | 80% | 1013.2 hPa | 0 mm | - | 740 W/m² | - |
| 1777147866 | 20° C | 81% | 1013.4 hPa | 0 mm | - | 644 W/m² | - |
| 1777147562 | 19.44° C | 79% | 1013.5 hPa | 0 mm | - | 699 W/m² | - |
| 1777147258 | 19.44° C | 81% | 1013.6 hPa | 0 mm | - | 203 W/m² | - |
| 1777146954 | 20° C | 80% | 1013.3 hPa | 0 mm | - | 821 W/m² | - |
| 1777146650 | 20° C | 82% | 1013.6 hPa | 0 mm | - | 732 W/m² | - |
| 1777146346 | 20° C | 81% | 1013.5 hPa | 0 mm | - | 688 W/m² | - |
| 1777146042 | 20° C | 81% | 1013.6 hPa | 0 mm | - | 268 W/m² | - |
| 1777145739 | 19.44° C | 81% | 1013.4 hPa | 0 mm | - | 713 W/m² | - |
| 1777145434 | 20° C | 81% | 1013.4 hPa | 0 mm | - | 751 W/m² | - |
| 1777145129 | 19.44° C | 83% | 1013.6 hPa | 0 mm | - | 692 W/m² | - |
| 1777144825 | 18.89° C | 84% | 1013.4 hPa | 0 mm | - | 696 W/m² | - |
| 1777144523 | 18.89° C | 85% | 1013.7 hPa | 0 mm | - | 715 W/m² | - |
| 1777144220 | 19.44° C | 84% | 1013.7 hPa | 0 mm | - | 690 W/m² | - |
| 1777143916 | 18.89° C | 83% | 1013.8 hPa | 0 mm | - | 700 W/m² | - |
| 1777143613 | 18.89° C | 86% | 1014 hPa | 0 mm | - | 759 W/m² | - |
* Rain latest hour (hover to see other rain measurements)
** Current wind speed in m/s (hover to see current wind gust speed)